Time;durP1;ratioP1;P1;durP2;ratioP2;P2;SDS_P1;SDS_P2;PMS_P1;PMS_P2;Temp;Humidity;BMP_temperature;BMP_pressure;BME280_temperature;BME280_humidity;BME280_pressure;Samples;Min_cycle;Max_cycle;Signal;HPM_P1;HPM_P2
2022/02/21 00:01:57;;;;;;;0.20;0.10;;;;;;;;;;4115920;28;20375;-58
2022/02/21 00:03:59;;;;;;;0.15;0.10;;;;;;;;;;4116447;28;20062;-57
2022/02/21 00:06:00;;;;;;;0.13;0.10;;;;;;;;;;4116275;28;20511;-58
2022/02/21 00:08:01;;;;;;;0.10;0.10;;;;;;;;;;4116165;28;20061;-58
2022/02/21 00:10:03;;;;;;;0.10;0.10;;;;;;;;;;4099282;29;20098;-58
2022/02/21 00:12:06;;;;;;;0.10;0.10;;;;;;;;;;4116334;28;20055;-58
2022/02/21 00:14:07;;;;;;;0.20;0.03;;;;;;;;;;4115031;28;20106;-58
2022/02/21 00:16:08;;;;;;;0.10;0.05;;;;;;;;;;4116262;28;20138;-58
2022/02/21 00:18:09;;;;;;;0.32;0.20;;;;;;;;;;4115606;28;20656;-57
2022/02/21 00:20:11;;;;;;;0.38;0.20;;;;;;;;;;4116251;28;20097;-58
2022/02/21 00:22:12;;;;;;;0.20;0.10;;;;;;;;;;4115274;28;20126;-57
2022/02/21 00:24:13;;;;;;;0.20;0.10;;;;;;;;;;4116098;28;20059;-58
2022/02/21 00:26:15;;;;;;;0.08;0.08;;;;;;;;;;4122086;28;20058;-57
2022/02/21 00:28:16;;;;;;;0.38;0.20;;;;;;;;;;4132092;28;20367;-57
2022/02/21 00:30:17;;;;;;;0.10;0.10;;;;;;;;;;4132022;28;20054;-57
2022/02/21 00:32:18;;;;;;;0.10;0.10;;;;;;;;;;4131622;28;20120;-56
2022/02/21 00:34:19;;;;;;;1.13;0.20;;;;;;;;;;4132038;28;20117;-58
2022/02/21 00:36:21;;;;;;;0.10;0.05;;;;;;;;;;4120798;28;20055;-58
2022/02/21 00:38:22;;;;;;;0.20;0.10;;;;;;;;;;4098369;29;20098;-58
2022/02/21 00:40:24;;;;;;;0.45;0.20;;;;;;;;;;4115702;28;20114;-57
2022/02/21 00:42:25;;;;;;;0.13;0.10;;;;;;;;;;4115368;28;20054;-58
2022/02/21 00:44:26;;;;;;;0.30;0.20;;;;;;;;;;4098418;28;20051;-57
2022/02/21 00:46:28;;;;;;;0.03;0.03;;;;;;;;;;4115714;28;20082;-58
2022/02/21 00:48:29;;;;;;;0.00;0.00;;;;;;;;;;4115396;28;20070;-57
2022/02/21 00:50:30;;;;;;;0.10;0.10;;;;;;;;;;4115587;28;20121;-58
2022/02/21 00:52:31;;;;;;;0.10;0.10;;;;;;;;;;4115399;28;20058;-56
2022/02/21 00:54:33;;;;;;;0.20;0.20;;;;;;;;;;4115525;28;20458;-57
2022/02/21 00:56:33;;;;;;;0.10;0.10;;;;;;;;;;4114175;28;20050;-57
2022/02/21 00:58:35;;;;;;;0.10;0.10;;;;;;;;;;4115391;28;20059;-57
2022/02/21 01:00:37;;;;;;;0.10;0.10;;;;;;;;;;4115694;28;20059;-58
2022/02/21 01:02:38;;;;;;;0.10;0.10;;;;;;;;;;4115091;28;20109;-58
2022/02/21 01:04:39;;;;;;;0.10;0.10;;;;;;;;;;4115603;28;20117;-58
2022/02/21 01:06:40;;;;;;;0.25;0.10;;;;;;;;;;4115280;28;20137;-57
2022/02/21 01:08:41;;;;;;;0.20;0.10;;;;;;;;;;4115409;28;20113;-58
2022/02/21 01:10:43;;;;;;;0.10;0.10;;;;;;;;;;4115316;28;20081;-58
2022/02/21 01:12:44;;;;;;;0.20;0.20;;;;;;;;;;4115316;28;20109;-58
2022/02/21 01:14:45;;;;;;;0.10;0.10;;;;;;;;;;4115710;28;20494;-58
2022/02/21 01:16:46;;;;;;;0.20;0.20;;;;;;;;;;4114698;28;20058;-57
2022/02/21 01:18:47;;;;;;;0.20;0.20;;;;;;;;;;4115712;28;20451;-57
2022/02/21 01:20:48;;;;;;;0.20;0.10;;;;;;;;;;4115359;28;20063;-57
2022/02/21 01:22:50;;;;;;;0.10;0.10;;;;;;;;;;4114877;28;20135;-57
2022/02/21 01:24:51;;;;;;;0.17;0.10;;;;;;;;;;4115073;28;20054;-58
2022/02/21 01:26:53;;;;;;;0.10;0.10;;;;;;;;;;4125952;28;20214;-57
2022/02/21 01:28:54;;;;;;;0.00;0.00;;;;;;;;;;4131140;28;20066;-58
2022/02/21 01:30:55;;;;;;;0.20;0.20;;;;;;;;;;4129859;28;20475;-58
2022/02/21 01:32:56;;;;;;;0.10;0.10;;;;;;;;;;4130508;28;20077;-58
2022/02/21 01:34:57;;;;;;;0.10;0.03;;;;;;;;;;4130852;28;20065;-58
2022/02/21 01:36:58;;;;;;;0.30;0.20;;;;;;;;;;4130920;28;20207;-58
2022/02/21 01:38:59;;;;;;;0.10;0.10;;;;;;;;;;4131084;28;20117;-57
2022/02/21 01:41:00;;;;;;;0.17;0.10;;;;;;;;;;4130857;28;20054;-56
2022/02/21 01:43:01;;;;;;;0.30;0.20;;;;;;;;;;4130664;28;20057;-58
2022/02/21 01:45:04;;;;;;;0.20;0.10;;;;;;;;;;4129623;28;20171;-58
2022/02/21 01:47:07;;;;;;;0.20;0.20;;;;;;;;;;4130575;28;20104;-58
2022/02/21 01:49:10;;;;;;;0.30;0.10;;;;;;;;;;4113569;28;20058;-58
2022/02/21 01:51:12;;;;;;;0.20;0.10;;;;;;;;;;4130971;28;20063;-58
2022/02/21 01:53:13;;;;;;;0.00;0.00;;;;;;;;;;4130672;28;20050;-58
2022/02/21 01:55:14;;;;;;;0.10;0.10;;;;;;;;;;4130511;28;20058;-58
2022/02/21 01:57:16;;;;;;;0.20;0.10;;;;;;;;;;4130739;28;20142;-58
2022/02/21 01:59:18;;;;;;;0.22;0.10;;;;;;;;;;4130857;28;20489;-58
2022/02/21 02:01:19;;;;;;;0.15;0.13;;;;;;;;;;4130787;28;20426;-58
2022/02/21 02:03:20;;;;;;;0.10;0.10;;;;;;;;;;4130265;28;20054;-58
2022/02/21 02:05:25;;;;;;;0.38;0.20;;;;;;;;;;4130477;28;20065;-58
2022/02/21 02:07:26;;;;;;;0.20;0.10;;;;;;;;;;4130397;28;20117;-58
2022/02/21 02:09:27;;;;;;;0.25;0.20;;;;;;;;;;4130664;28;20066;-58
2022/02/21 02:11:29;;;;;;;0.22;0.15;;;;;;;;;;4113413;28;20141;-55
2022/02/21 02:13:30;;;;;;;0.20;0.13;;;;;;;;;;4130379;28;20058;-58
2022/02/21 02:15:31;;;;;;;0.20;0.10;;;;;;;;;;4130331;28;20387;-57
2022/02/21 02:17:33;;;;;;;0.20;0.10;;;;;;;;;;4112512;28;20058;-57
2022/02/21 02:19:34;;;;;;;0.10;0.10;;;;;;;;;;4129030;28;20054;-58
2022/02/21 02:21:36;;;;;;;0.10;0.10;;;;;;;;;;4130234;28;20466;-58
2022/02/21 02:23:37;;;;;;;0.15;0.10;;;;;;;;;;4128986;28;20497;-58
2022/02/21 02:25:39;;;;;;;0.10;0.10;;;;;;;;;;4128668;28;20109;-58
2022/02/21 02:27:41;;;;;;;0.50;0.13;;;;;;;;;;4130415;28;20058;-57
2022/02/21 02:29:43;;;;;;;0.20;0.10;;;;;;;;;;4130161;28;20058;-58
2022/02/21 02:31:44;;;;;;;0.10;0.10;;;;;;;;;;4129558;28;20529;-58
2022/02/21 02:33:46;;;;;;;0.32;0.10;;;;;;;;;;4130157;28;20097;-58
2022/02/21 02:35:47;;;;;;;0.30;0.20;;;;;;;;;;4130112;28;20085;-58
2022/02/21 02:37:48;;;;;;;0.55;0.10;;;;;;;;;;4130101;28;20109;-58
2022/02/21 02:39:50;;;;;;;0.10;0.10;;;;;;;;;;4130117;28;20058;-59
2022/02/21 02:41:51;;;;;;;0.05;0.03;;;;;;;;;;4128620;28;20128;-59
2022/02/21 02:43:52;;;;;;;0.17;0.10;;;;;;;;;;4112696;28;20109;-57
2022/02/21 02:45:54;;;;;;;0.22;0.10;;;;;;;;;;4128747;28;20054;-58
2022/02/21 02:47:55;;;;;;;0.10;0.10;;;;;;;;;;4129423;28;20487;-57
2022/02/21 02:49:56;;;;;;;0.15;0.15;;;;;;;;;;4129996;28;20050;-58
2022/02/21 02:51:57;;;;;;;0.20;0.20;;;;;;;;;;4130164;28;20136;-58
2022/02/21 02:53:58;;;;;;;0.17;0.10;;;;;;;;;;4130014;28;20113;-58
2022/02/21 02:55:59;;;;;;;0.30;0.10;;;;;;;;;;4130305;28;20058;-57
2022/02/21 02:58:01;;;;;;;0.38;0.20;;;;;;;;;;4129987;28;20058;-58
2022/02/21 03:00:03;;;;;;;0.40;0.10;;;;;;;;;;4129780;28;20443;-58
2022/02/21 03:02:04;;;;;;;0.10;0.10;;;;;;;;;;4129514;28;20199;-57
2022/02/21 03:04:06;;;;;;;0.52;0.17;;;;;;;;;;4129897;28;20514;-56
2022/02/21 03:06:07;;;;;;;0.10;0.10;;;;;;;;;;4129962;28;20491;-56
2022/02/21 03:08:09;;;;;;;0.17;0.10;;;;;;;;;;4128320;28;20124;-57
2022/02/21 03:10:10;;;;;;;0.08;0.00;;;;;;;;;;4128626;28;20268;-58
2022/02/21 03:12:11;;;;;;;0.60;0.20;;;;;;;;;;4129625;28;20117;-58
2022/02/21 03:14:12;;;;;;;0.15;0.13;;;;;;;;;;4129712;28;20058;-57
2022/02/21 03:16:13;;;;;;;0.65;0.20;;;;;;;;;;4130059;28;20328;-58
2022/02/21 03:18:14;;;;;;;0.20;0.20;;;;;;;;;;4129308;28;20101;-57
2022/02/21 03:20:15;;;;;;;0.15;0.10;;;;;;;;;;4128360;28;20062;-56
2022/02/21 03:22:16;;;;;;;0.10;0.10;;;;;;;;;;4129321;28;20395;-58
2022/02/21 03:24:17;;;;;;;0.52;0.30;;;;;;;;;;4112752;28;20058;-58
2022/02/21 03:26:19;;;;;;;0.17;0.10;;;;;;;;;;4129694;28;20081;-56
2022/02/21 03:28:20;;;;;;;0.13;0.10;;;;;;;;;;4129515;28;20063;-58
2022/02/21 03:30:21;;;;;;;0.10;0.10;;;;;;;;;;4128278;28;20050;-58
2022/02/21 03:32:22;;;;;;;0.10;0.10;;;;;;;;;;4129017;28;20109;-58
2022/02/21 03:34:23;;;;;;;0.00;0.00;;;;;;;;;;4128492;28;20066;-58
2022/02/21 03:36:24;;;;;;;0.13;0.10;;;;;;;;;;4112140;28;20062;-57
2022/02/21 03:38:25;;;;;;;0.10;0.10;;;;;;;;;;4128483;28;20108;-57
2022/02/21 03:40:27;;;;;;;0.32;0.20;;;;;;;;;;4129681;28;20062;-58
2022/02/21 03:42:28;;;;;;;0.20;0.20;;;;;;;;;;4129646;28;20517;-58
2022/02/21 03:44:29;;;;;;;0.10;0.10;;;;;;;;;;4129976;28;20062;-57
2022/02/21 03:46:30;;;;;;;0.10;0.10;;;;;;;;;;4129629;28;20070;-57
2022/02/21 03:48:31;;;;;;;1.10;0.30;;;;;;;;;;4129110;28;20470;-58
2022/02/21 03:50:32;;;;;;;0.10;0.10;;;;;;;;;;4112129;28;20471;-58
2022/02/21 03:52:34;;;;;;;0.10;0.10;;;;;;;;;;4129336;28;20435;-58
2022/02/21 03:54:35;;;;;;;0.20;0.10;;;;;;;;;;4128447;28;20108;-58
2022/02/21 03:56:36;;;;;;;0.32;0.10;;;;;;;;;;4130158;28;20062;-57
2022/02/21 03:58:37;;;;;;;0.03;0.03;;;;;;;;;;4115352;28;20426;-57
2022/02/21 04:00:39;;;;;;;0.10;0.10;;;;;;;;;;4132591;28;20093;-58
2022/02/21 04:02:41;;;;;;;0.10;0.10;;;;;;;;;;4131697;28;20462;-58
2022/02/21 04:04:43;;;;;;;0.00;0.00;;;;;;;;;;4132220;28;20493;-56
2022/02/21 04:06:44;;;;;;;0.40;0.10;;;;;;;;;;4132368;28;20054;-56
2022/02/21 04:08:45;;;;;;;0.10;0.10;;;;;;;;;;4132384;28;20054;-57
2022/02/21 04:10:46;;;;;;;0.32;0.10;;;;;;;;;;4132512;28;20062;-57
2022/02/21 04:12:47;;;;;;;0.47;0.10;;;;;;;;;;4131990;28;20081;-58
2022/02/21 04:14:49;;;;;;;0.10;0.10;;;;;;;;;;4132295;28;20117;-57
2022/02/21 04:16:50;;;;;;;0.13;0.10;;;;;;;;;;4131744;28;20054;-57
2022/02/21 04:18:51;;;;;;;0.57;0.20;;;;;;;;;;4132093;28;20407;-58
2022/02/21 04:20:52;;;;;;;0.10;0.10;;;;;;;;;;4132016;28;20050;-58
2022/02/21 04:22:53;;;;;;;0.10;0.10;;;;;;;;;;4131823;28;20552;-57
2022/02/21 04:24:54;;;;;;;0.30;0.15;;;;;;;;;;4132073;28;20116;-57
2022/02/21 04:26:55;;;;;;;0.50;0.10;;;;;;;;;;4131745;28;20070;-57
2022/02/21 04:28:56;;;;;;;0.20;0.20;;;;;;;;;;4130854;28;20108;-58
2022/02/21 04:30:57;;;;;;;0.22;0.20;;;;;;;;;;4130821;28;20476;-58
2022/02/21 04:32:58;;;;;;;0.30;0.10;;;;;;;;;;4131383;28;20054;-58
2022/02/21 04:34:59;;;;;;;0.22;0.10;;;;;;;;;;4132060;28;20058;-57
2022/02/21 04:37:01;;;;;;;0.10;0.10;;;;;;;;;;4130526;28;20066;-58
2022/02/21 04:39:02;;;;;;;0.10;0.10;;;;;;;;;;4132000;28;20510;-57
2022/02/21 04:41:03;;;;;;;0.20;0.10;;;;;;;;;;4132009;28;20058;-56
2022/02/21 04:43:05;;;;;;;0.52;0.15;;;;;;;;;;4131856;28;20134;-58
2022/02/21 04:45:06;;;;;;;0.30;0.10;;;;;;;;;;4131654;28;20133;-57
2022/02/21 04:47:07;;;;;;;0.13;0.10;;;;;;;;;;4131389;28;20055;-56
2022/02/21 04:49:09;;;;;;;0.28;0.10;;;;;;;;;;4131704;28;20064;-55
2022/02/21 04:51:10;;;;;;;0.10;0.10;;;;;;;;;;4131544;28;20058;-57
2022/02/21 04:53:11;;;;;;;0.10;0.10;;;;;;;;;;4130115;28;20050;-57
2022/02/21 04:55:13;;;;;;;0.28;0.10;;;;;;;;;;4131728;28;20097;-58
2022/02/21 04:57:14;;;;;;;0.20;0.10;;;;;;;;;;4131394;28;20441;-55
2022/02/21 04:59:15;;;;;;;0.38;0.10;;;;;;;;;;4132033;28;20066;-57
2022/02/21 05:01:16;;;;;;;1.00;0.15;;;;;;;;;;4114288;28;20447;-57
2022/02/21 05:03:18;;;;;;;0.60;0.20;;;;;;;;;;4129644;28;20842;-58
2022/02/21 05:05:19;;;;;;;0.32;0.10;;;;;;;;;;4131775;28;20058;-56
2022/02/21 05:07:20;;;;;;;0.10;0.10;;;;;;;;;;4130957;28;20050;-56
2022/02/21 05:09:21;;;;;;;0.20;0.10;;;;;;;;;;4131565;28;20569;-56
2022/02/21 05:11:23;;;;;;;0.30;0.20;;;;;;;;;;4131401;28;20101;-58
2022/02/21 05:13:24;;;;;;;1.52;0.15;;;;;;;;;;4131559;28;20057;-58
2022/02/21 05:15:25;;;;;;;0.28;0.10;;;;;;;;;;4131279;28;20487;-57
2022/02/21 05:17:26;;;;;;;0.40;0.00;;;;;;;;;;4130624;28;20085;-57
2022/02/21 05:19:27;;;;;;;0.10;0.10;;;;;;;;;;4113969;28;20067;-57
2022/02/21 05:21:29;;;;;;;0.10;0.10;;;;;;;;;;4114262;28;20067;-57
2022/02/21 05:23:30;;;;;;;0.10;0.10;;;;;;;;;;4131315;28;20062;-57
2022/02/21 05:25:32;;;;;;;0.15;0.05;;;;;;;;;;4113828;28;20054;-57
2022/02/21 05:27:37;;;;;;;0.10;0.10;;;;;;;;;;4142758;28;20493;-57
2022/02/21 05:29:38;;;;;;;1.27;0.00;;;;;;;;;;4147467;28;20062;-57
2022/02/21 05:31:39;;;;;;;0.50;0.10;;;;;;;;;;4146747;28;20132;-57
2022/02/21 05:33:41;;;;;;;0.10;0.10;;;;;;;;;;4147373;28;20406;-58
2022/02/21 05:35:43;;;;;;;0.32;0.13;;;;;;;;;;4141057;28;20157;-57
2022/02/21 05:37:46;;;;;;;0.32;0.20;;;;;;;;;;4130907;28;20065;-58
2022/02/21 05:39:47;;;;;;;0.10;0.10;;;;;;;;;;4131104;28;20104;-57
2022/02/21 05:41:48;;;;;;;0.10;0.03;;;;;;;;;;4130774;28;20532;-57
2022/02/21 05:43:50;;;;;;;0.68;0.20;;;;;;;;;;4131224;28;20116;-57
2022/02/21 05:45:51;;;;;;;0.45;0.20;;;;;;;;;;4130439;28;20066;-57
2022/02/21 05:47:52;;;;;;;0.20;0.10;;;;;;;;;;4130523;28;20050;-57
2022/02/21 05:49:54;;;;;;;0.80;0.10;;;;;;;;;;4130740;28;20059;-58
2022/02/21 05:51:55;;;;;;;0.15;0.10;;;;;;;;;;4130854;28;20112;-57
2022/02/21 05:53:56;;;;;;;0.22;0.03;;;;;;;;;;4130872;28;20050;-57
2022/02/21 05:55:57;;;;;;;0.63;0.20;;;;;;;;;;4131041;28;20124;-57
2022/02/21 05:57:59;;;;;;;0.10;0.10;;;;;;;;;;4130558;28;20054;-58
2022/02/21 06:00:02;;;;;;;0.20;0.20;;;;;;;;;;4130692;28;20206;-58
2022/02/21 06:02:05;;;;;;;0.20;0.20;;;;;;;;;;4127167;28;20050;-57
2022/02/21 06:04:06;;;;;;;0.10;0.10;;;;;;;;;;4128499;28;20058;-56
2022/02/21 06:06:08;;;;;;;0.17;0.10;;;;;;;;;;4128803;28;20576;-58
2022/02/21 06:08:09;;;;;;;0.20;0.10;;;;;;;;;;4128253;28;20120;-57
2022/02/21 06:10:10;;;;;;;0.03;0.00;;;;;;;;;;4126090;28;20050;-56
2022/02/21 06:12:11;;;;;;;0.30;0.10;;;;;;;;;;4124218;28;20130;-57
2022/02/21 06:14:13;;;;;;;0.50;0.10;;;;;;;;;;4129217;28;20102;-57
2022/02/21 06:16:14;;;;;;;0.17;0.17;;;;;;;;;;4126064;28;20128;-57
2022/02/21 06:18:15;;;;;;;0.55;0.20;;;;;;;;;;4127431;28;20108;-57
2022/02/21 06:20:16;;;;;;;0.10;0.10;;;;;;;;;;4126186;28;20498;-58
2022/02/21 06:22:17;;;;;;;0.32;0.28;;;;;;;;;;4127653;28;20058;-58
2022/02/21 06:24:19;;;;;;;0.15;0.10;;;;;;;;;;4123473;28;20077;-57
2022/02/21 06:26:20;;;;;;;0.10;0.10;;;;;;;;;;4123303;28;20521;-57
2022/02/21 06:28:24;;;;;;;0.20;0.10;;;;;;;;;;4130034;28;20057;-57
2022/02/21 06:30:25;;;;;;;0.00;0.00;;;;;;;;;;4126369;28;20133;-56
2022/02/21 06:32:26;;;;;;;0.47;0.17;;;;;;;;;;4111720;28;20113;-58
2022/02/21 06:34:27;;;;;;;0.20;0.20;;;;;;;;;;4123791;28;20116;-54
2022/02/21 06:36:28;;;;;;;0.10;0.10;;;;;;;;;;4108356;28;20116;-55
2022/02/21 06:38:30;;;;;;;0.17;0.10;;;;;;;;;;4120432;28;20137;-57
2022/02/21 06:40:31;;;;;;;0.10;0.10;;;;;;;;;;4096167;28;20070;-56
2022/02/21 06:42:32;;;;;;;1.83;0.20;;;;;;;;;;4122848;28;20114;-59
2022/02/21 06:44:33;;;;;;;0.30;0.10;;;;;;;;;;4125550;28;20116;-57
2022/02/21 06:46:34;;;;;;;0.25;0.20;;;;;;;;;;4106647;28;20572;-57
2022/02/21 06:48:35;;;;;;;0.10;0.10;;;;;;;;;;4123772;28;20072;-57
2022/02/21 06:50:37;;;;;;;0.00;0.00;;;;;;;;;;4120101;28;20061;-57
2022/02/21 06:52:38;;;;;;;0.95;0.15;;;;;;;;;;4123205;28;20519;-58
2022/02/21 06:54:39;;;;;;;0.85;0.20;;;;;;;;;;4124460;28;20418;-58
2022/02/21 06:56:40;;;;;;;0.38;0.17;;;;;;;;;;4117341;28;20129;-59
2022/02/21 06:58:41;;;;;;;0.43;0.08;;;;;;;;;;4127958;28;20433;-58
2022/02/21 07:00:42;;;;;;;0.20;0.10;;;;;;;;;;4119428;28;20113;-58
2022/02/21 07:02:44;;;;;;;0.75;0.20;;;;;;;;;;4120646;28;20453;-56
2022/02/21 07:04:45;;;;;;;0.22;0.10;;;;;;;;;;4109404;28;20116;-57
2022/02/21 07:06:46;;;;;;;0.47;0.32;;;;;;;;;;4119584;28;20058;-58
2022/02/21 07:08:47;;;;;;;1.65;0.20;;;;;;;;;;4120487;28;20058;-56
2022/02/21 07:10:48;;;;;;;0.30;0.20;;;;;;;;;;4121988;28;20116;-56
2022/02/21 07:12:51;;;;;;;0.55;0.20;;;;;;;;;;4118349;28;20058;-57
2022/02/21 07:14:52;;;;;;;0.10;0.10;;;;;;;;;;4112013;28;20370;-58
2022/02/21 07:16:54;;;;;;;0.77;0.20;;;;;;;;;;4108446;28;20125;-58
2022/02/21 07:18:55;;;;;;;0.20;0.20;;;;;;;;;;4119821;28;20521;-56
2022/02/21 07:20:56;;;;;;;0.32;0.15;;;;;;;;;;4113142;28;20116;-57
2022/02/21 07:22:58;;;;;;;0.10;0.10;;;;;;;;;;4115942;28;20058;-59
2022/02/21 07:24:59;;;;;;;0.63;0.10;;;;;;;;;;4114194;28;20054;-57
2022/02/21 07:27:03;;;;;;;0.17;0.10;;;;;;;;;;4116229;28;20158;-58
2022/02/21 07:29:04;;;;;;;1.50;0.20;;;;;;;;;;4115773;28;20117;-58
2022/02/21 07:31:06;;;;;;;0.80;0.10;;;;;;;;;;4118260;28;20506;-57
2022/02/21 07:33:08;;;;;;;0.45;0.10;;;;;;;;;;4116288;28;20604;-58
2022/02/21 07:35:11;;;;;;;0.28;0.20;;;;;;;;;;4120526;28;20061;-58
2022/02/21 07:37:12;;;;;;;0.10;0.10;;;;;;;;;;4118766;28;20074;-58
2022/02/21 07:39:13;;;;;;;0.40;0.25;;;;;;;;;;4123790;28;20716;-59
2022/02/21 07:41:14;;;;;;;0.32;0.10;;;;;;;;;;4113082;28;20046;-58
2022/02/21 07:43:15;;;;;;;0.13;0.10;;;;;;;;;;4120227;28;20132;-58
2022/02/21 07:45:19;;;;;;;0.25;0.15;;;;;;;;;;4112906;28;20145;-57
2022/02/21 07:47:20;;;;;;;0.22;0.20;;;;;;;;;;4118003;28;20637;-57
2022/02/21 07:49:21;;;;;;;0.35;0.20;;;;;;;;;;4115141;28;20104;-57
2022/02/21 07:51:22;;;;;;;0.20;0.20;;;;;;;;;;4103299;28;20489;-59
2022/02/21 07:53:24;;;;;;;0.13;0.13;;;;;;;;;;4113811;28;20063;-58
2022/02/21 07:55:26;;;;;;;0.10;0.10;;;;;;;;;;4108849;28;20150;-60
2022/02/21 07:57:27;;;;;;;2.42;0.40;;;;;;;;;;4107324;28;20058;-59
2022/02/21 07:59:29;;;;;;;0.30;0.20;;;;;;;;;;4095973;28;20117;-58
2022/02/21 08:01:30;;;;;;;0.32;0.10;;;;;;;;;;4108163;28;20446;-59
2022/02/21 08:03:31;;;;;;;0.88;0.40;;;;;;;;;;4093972;28;20113;-58
2022/02/21 08:05:35;;;;;;;0.52;0.20;;;;;;;;;;4110506;28;20473;-59
2022/02/21 08:07:37;;;;;;;0.47;0.20;;;;;;;;;;4115727;28;20057;-58
2022/02/21 08:09:38;;;;;;;0.55;0.13;;;;;;;;;;4115716;28;20058;-58
2022/02/21 08:11:40;;;;;;;0.10;0.10;;;;;;;;;;4115737;28;20160;-59
2022/02/21 08:13:41;;;;;;;0.10;0.10;;;;;;;;;;4107248;28;21389;-59
2022/02/21 08:15:42;;;;;;;1.27;0.15;;;;;;;;;;4104031;28;20058;-58
2022/02/21 08:17:46;;;;;;;0.10;0.10;;;;;;;;;;4109108;28;20066;-58
2022/02/21 08:19:47;;;;;;;0.55;0.25;;;;;;;;;;4112875;28;20230;-58
2022/02/21 08:21:48;;;;;;;0.20;0.20;;;;;;;;;;4110010;28;20085;-60
2022/02/21 08:23:49;;;;;;;0.52;0.10;;;;;;;;;;4116456;28;22787;-58
2022/02/21 08:25:50;;;;;;;0.10;0.10;;;;;;;;;;4113968;28;20506;-55
2022/02/21 08:27:52;;;;;;;0.10;0.10;;;;;;;;;;4117089;28;20054;-58
2022/02/21 08:29:53;;;;;;;0.10;0.10;;;;;;;;;;4114914;28;20293;-58
2022/02/21 08:31:54;;;;;;;0.00;0.00;;;;;;;;;;4112206;28;20541;-57
2022/02/21 08:33:55;;;;;;;2.20;0.10;;;;;;;;;;4102565;28;20105;-57
2022/02/21 08:35:56;;;;;;;0.10;0.10;;;;;;;;;;4117091;28;20061;-57
2022/02/21 08:38:00;;;;;;;0.13;0.00;;;;;;;;;;4113722;28;20485;-56
2022/02/21 08:40:01;;;;;;;0.10;0.10;;;;;;;;;;4113158;28;20103;-57
2022/02/21 08:42:02;;;;;;;0.13;0.10;;;;;;;;;;4112461;28;20065;-58
2022/02/21 08:44:04;;;;;;;0.10;0.10;;;;;;;;;;4110025;28;20058;-58
2022/02/21 08:46:05;;;;;;;0.13;0.13;;;;;;;;;;4115348;28;20846;-58
2022/02/21 08:48:06;;;;;;;0.30;0.20;;;;;;;;;;4109121;28;20615;-56
2022/02/21 08:50:10;;;;;;;0.20;0.10;;;;;;;;;;4110958;28;20050;-57
2022/02/21 08:52:11;;;;;;;0.30;0.10;;;;;;;;;;4115811;28;20062;-58
2022/02/21 08:54:12;;;;;;;0.40;0.30;;;;;;;;;;4114256;28;20050;-55
2022/02/21 08:56:14;;;;;;;0.13;0.10;;;;;;;;;;4114196;28;20061;-55
2022/02/21 08:58:15;;;;;;;0.43;0.10;;;;;;;;;;4113502;28;20046;-57
2022/02/21 09:00:17;;;;;;;1.48;0.10;;;;;;;;;;4116648;28;20153;-58
2022/02/21 09:02:19;;;;;;;0.05;0.05;;;;;;;;;;4131953;28;20065;-54
2022/02/21 09:04:20;;;;;;;0.10;0.10;;;;;;;;;;4113994;28;20491;-58
2022/02/21 09:06:21;;;;;;;1.58;0.10;;;;;;;;;;4117799;28;20079;-55
2022/02/21 09:08:25;;;;;;;0.10;0.10;;;;;;;;;;4115877;28;20434;-56
2022/02/21 09:10:26;;;;;;;0.40;0.20;;;;;;;;;;4115030;28;20065;-57
2022/02/21 09:12:28;;;;;;;0.20;0.10;;;;;;;;;;4114697;28;20121;-56
2022/02/21 09:14:29;;;;;;;1.27;0.20;;;;;;;;;;4112392;28;20062;-55
2022/02/21 09:16:30;;;;;;;0.43;0.20;;;;;;;;;;4096361;28;20109;-56
2022/02/21 09:18:32;;;;;;;0.15;0.10;;;;;;;;;;4107224;28;20501;-57
2022/02/21 09:20:33;;;;;;;0.10;0.10;;;;;;;;;;4111729;28;20069;-57
2022/02/21 09:22:34;;;;;;;0.15;0.10;;;;;;;;;;4094587;28;20070;-57
2022/02/21 09:24:35;;;;;;;0.10;0.10;;;;;;;;;;4107458;28;20414;-60
2022/02/21 09:26:36;;;;;;;0.10;0.10;;;;;;;;;;4115258;28;20113;-57
2022/02/21 09:28:37;;;;;;;0.30;0.20;;;;;;;;;;4113497;28;20113;-56
2022/02/21 09:30:39;;;;;;;1.85;0.10;;;;;;;;;;4112174;28;20051;-56
2022/02/21 09:32:40;;;;;;;0.10;0.10;;;;;;;;;;4107361;28;20674;-55
2022/02/21 09:34:41;;;;;;;0.57;0.20;;;;;;;;;;4099765;28;20071;-56
2022/02/21 09:36:42;;;;;;;0.15;0.10;;;;;;;;;;4112083;28;20323;-57
2022/02/21 09:38:43;;;;;;;0.10;0.10;;;;;;;;;;4111007;28;20156;-57
2022/02/21 09:40:48;;;;;;;0.10;0.10;;;;;;;;;;4113619;28;20499;-57
2022/02/21 09:42:49;;;;;;;4.18;0.20;;;;;;;;;;4110096;28;20076;-57
2022/02/21 09:44:51;;;;;;;0.17;0.10;;;;;;;;;;4119253;28;20209;-57
2022/02/21 09:46:52;;;;;;;0.10;0.08;;;;;;;;;;4115859;28;20058;-58
2022/02/21 09:48:54;;;;;;;0.10;0.10;;;;;;;;;;4083759;28;20086;-56
2022/02/21 09:50:59;;;;;;;2.10;0.20;;;;;;;;;;4126684;28;20105;-56
2022/02/21 09:53:04;;;;;;;0.15;0.15;;;;;;;;;;4116857;28;20054;-57
2022/02/21 09:55:06;;;;;;;0.30;0.10;;;;;;;;;;4118072;28;20101;-58
2022/02/21 09:57:07;;;;;;;0.73;0.15;;;;;;;;;;4115477;28;20124;-57
2022/02/21 09:59:10;;;;;;;1.48;0.20;;;;;;;;;;4121235;28;20447;-54
2022/02/21 10:01:11;;;;;;;0.85;0.10;;;;;;;;;;4112237;28;20081;-57
2022/02/21 10:03:13;;;;;;;0.10;0.10;;;;;;;;;;4124066;28;20079;-57
2022/02/21 10:05:21;;;;;;;2.38;0.10;;;;;;;;;;4117270;28;20059;-55
2022/02/21 10:07:28;;;;;;;0.43;0.03;;;;;;;;;;4118111;28;20062;-57
2022/02/21 10:09:30;;;;;;;0.03;0.03;;;;;;;;;;4116609;28;20427;-56
2022/02/21 10:11:32;;;;;;;2.03;0.30;;;;;;;;;;4116272;28;20054;-62
2022/02/21 10:13:53;;;;;;;0.10;0.10;;;;;;;;;;4118459;28;20054;-56
2022/02/21 10:15:59;;;;;;;0.03;0.03;;;;;;;;;;4117774;28;20066;-58
2022/02/21 10:18:18;;;;;;;0.10;0.10;;;;;;;;;;4118509;28;20066;-57
2022/02/21 10:20:20;;;;;;;0.30;0.10;;;;;;;;;;4118038;28;20132;-57
2022/02/21 10:22:23;;;;;;;0.10;0.10;;;;;;;;;;4120090;28;20325;-59
2022/02/21 10:24:25;;;;;;;0.10;0.10;;;;;;;;;;4104112;28;20490;-57
2022/02/21 10:26:30;;;;;;;0.32;0.10;;;;;;;;;;4116846;28;20372;-58
2022/02/21 10:28:40;;;;;;;0.30;0.20;;;;;;;;;;4117923;28;20050;-57
2022/02/21 10:30:42;;;;;;;0.38;0.10;;;;;;;;;;4117619;28;20078;-58
2022/02/21 10:32:44;;;;;;;0.20;0.20;;;;;;;;;;4118633;28;20406;-58
2022/02/21 10:34:45;;;;;;;0.10;0.10;;;;;;;;;;4122502;28;20058;-58
2022/02/21 10:36:47;;;;;;;0.77;0.20;;;;;;;;;;4117407;28;20276;-57
2022/02/21 10:38:51;;;;;;;0.00;0.00;;;;;;;;;;4118673;28;20061;-57
2022/02/21 10:41:04;;;;;;;0.13;0.10;;;;;;;;;;4114990;28;20058;-57
2022/02/21 10:43:10;;;;;;;0.20;0.10;;;;;;;;;;4116210;28;20058;-55
2022/02/21 10:45:16;;;;;;;0.20;0.17;;;;;;;;;;4120141;28;20145;-57
2022/02/21 10:47:18;;;;;;;0.10;0.10;;;;;;;;;;4118607;28;20054;-57
2022/02/21 10:49:19;;;;;;;0.20;0.20;;;;;;;;;;4118449;28;20498;-58
2022/02/21 10:51:20;;;;;;;0.10;0.10;;;;;;;;;;4122286;28;20109;-57
2022/02/21 10:53:23;;;;;;;0.15;0.10;;;;;;;;;;4109990;28;20058;-57
2022/02/21 10:55:32;;;;;;;0.30;0.13;;;;;;;;;;4119945;28;20054;-56
2022/02/21 10:57:41;;;;;;;0.17;0.13;;;;;;;;;;4125388;28;20100;-57
2022/02/21 10:59:43;;;;;;;0.10;0.10;;;;;;;;;;4112923;28;20102;-55
2022/02/21 11:01:44;;;;;;;0.00;0.00;;;;;;;;;;4121672;28;20062;-57
2022/02/21 11:03:45;;;;;;;0.10;0.00;;;;;;;;;;4119087;28;20498;-60
2022/02/21 11:05:48;;;;;;;0.38;0.10;;;;;;;;;;4118833;28;20505;-58
2022/02/21 11:07:49;;;;;;;0.45;0.10;;;;;;;;;;4119505;28;20088;-57
2022/02/21 11:09:51;;;;;;;0.03;0.00;;;;;;;;;;4097133;28;20059;-58
2022/02/21 11:11:53;;;;;;;0.35;0.20;;;;;;;;;;4112720;28;20351;-56
2022/02/21 11:13:57;;;;;;;0.38;0.10;;;;;;;;;;4102362;28;20054;-60
2022/02/21 11:15:58;;;;;;;0.32;0.20;;;;;;;;;;4099253;28;20098;-58
2022/02/21 11:17:59;;;;;;;0.00;0.00;;;;;;;;;;4123526;28;20058;-56
2022/02/21 11:20:01;;;;;;;0.43;0.20;;;;;;;;;;4118453;28;20066;-59
2022/02/21 11:22:02;;;;;;;0.63;0.10;;;;;;;;;;4123635;28;20065;-55
2022/02/21 11:24:04;;;;;;;0.32;0.10;;;;;;;;;;4119909;28;20117;-56
2022/02/21 11:26:16;;;;;;;0.30;0.08;;;;;;;;;;4094999;28;20066;-58
2022/02/21 11:28:28;;;;;;;0.77;0.00;;;;;;;;;;4091004;28;20141;-58
2022/02/21 11:30:30;;;;;;;0.10;0.00;;;;;;;;;;4117614;28;20058;-57
2022/02/21 11:32:31;;;;;;;0.10;0.10;;;;;;;;;;4100584;28;20562;-57
2022/02/21 11:34:46;;;;;;;0.38;0.00;;;;;;;;;;4117488;28;20868;-57
2022/02/21 11:36:57;;;;;;;0.10;0.10;;;;;;;;;;4119715;28;20058;-56
2022/02/21 11:38:58;;;;;;;0.15;0.10;;;;;;;;;;4122639;28;20058;-58
2022/02/21 11:41:06;;;;;;;1.45;0.15;;;;;;;;;;4118503;28;20054;-57
2022/02/21 11:43:25;;;;;;;0.00;0.00;;;;;;;;;;4120637;28;20120;-55
2022/02/21 11:45:28;;;;;;;0.00;0.00;;;;;;;;;;4121940;28;20113;-57
2022/02/21 11:47:39;;;;;;;0.03;0.03;;;;;;;;;;4104511;28;20062;-56
2022/02/21 11:49:54;;;;;;;0.00;0.00;;;;;;;;;;4121727;28;20046;-57
2022/02/21 11:51:57;;;;;;;0.10;0.10;;;;;;;;;;4105000;28;20543;-56
2022/02/21 11:54:13;;;;;;;0.22;0.10;;;;;;;;;;4117607;28;20134;-56
2022/02/21 11:56:15;;;;;;;0.40;0.10;;;;;;;;;;4122366;28;20113;-56
2022/02/21 11:58:16;;;;;;;0.50;0.10;;;;;;;;;;4121378;28;20097;-57
2022/02/21 12:00:32;;;;;;;0.50;0.10;;;;;;;;;;4118942;28;20797;-57
2022/02/21 12:02:33;;;;;;;0.38;0.38;;;;;;;;;;4117460;28;20517;-57
2022/02/21 12:04:56;;;;;;;1.17;0.10;;;;;;;;;;4119390;28;20045;-54
2022/02/21 12:07:00;;;;;;;0.10;0.10;;;;;;;;;;4115845;28;20581;-57
2022/02/21 12:09:03;;;;;;;0.00;0.00;;;;;;;;;;4115971;28;20066;-57
2022/02/21 12:11:04;;;;;;;0.17;0.10;;;;;;;;;;4120927;28;20403;-57
2022/02/21 12:13:11;;;;;;;0.03;0.00;;;;;;;;;;4114305;28;20145;-56